Time;durP1;ratioP1;P1;durP2;ratioP2;P2;SDS_P1;SDS_P2;PMS_P1;PMS_P2;Temp;Humidity;BMP_temperature;BMP_pressure;BME280_temperature;BME280_humidity;BME280_pressure;Samples;Min_cycle;Max_cycle;Signal;HPM_P1;HPM_P2
2022/01/04 00:00:45;;;;;;;3.33;1.15;;;;;;;5.79;91.27;100110.59;10455519;28;20057;-92
2022/01/04 00:05:45;;;;;;;4.32;2.35;;;;;;;5.77;91.53;100105.31;10465839;28;20460;-92
2022/01/04 00:10:46;;;;;;;4.55;1.25;;;;;;;5.78;92.01;100103.63;10445610;28;20099;-90
2022/01/04 00:15:47;;;;;;;5.07;1.73;;;;;;;5.68;91.65;100092.75;10477339;28;20162;-93
2022/01/04 00:20:47;;;;;;;2.72;1.17;;;;;;;5.66;92.08;100076.19;10446342;28;20028;-90
2022/01/04 00:25:48;;;;;;;3.30;2.03;;;;;;;5.66;92.47;100072.69;10454604;28;20431;-91
2022/01/04 00:30:48;;;;;;;3.45;1.15;;;;;;;5.64;92.09;100057.03;10471598;28;20119;-94
2022/01/04 00:35:49;;;;;;;6.13;2.13;;;;;;;5.63;92.20;100052.66;10512963;28;20044;-96
2022/01/04 00:40:49;;;;;;;2.47;1.02;;;;;;;5.58;92.79;100043.72;10463476;28;20036;-94
2022/01/04 00:45:51;;;;;;;3.65;1.40;;;;;;;5.62;91.91;100021.41;10442053;28;20420;-94
2022/01/04 00:50:52;;;;;;;4.18;1.73;;;;;;;5.55;92.62;99997.72;10474128;28;20032;-95
2022/01/04 00:55:53;;;;;;;3.90;1.95;;;;;;;5.51;92.27;99995.75;10452915;28;20483;-94
2022/01/04 01:00:53;;;;;;;3.05;1.35;;;;;;;5.54;92.92;99984.66;10455731;28;20173;-96
2022/01/04 01:05:54;;;;;;;5.63;2.58;;;;;;;5.57;92.83;99987.41;10456249;28;20029;-94
2022/01/04 01:10:54;;;;;;;3.72;1.45;;;;;;;5.52;92.89;99986.28;10487597;28;20068;-94
2022/01/04 01:15:55;;;;;;;5.13;2.13;;;;;;;5.47;92.77;99980.81;10437160;28;20033;-95
2022/01/04 01:20:55;;;;;;;4.47;2.05;;;;;;;5.46;93.11;99973.84;10458173;28;20150;-94
2022/01/04 01:25:56;;;;;;;6.22;2.42;;;;;;;5.41;93.55;99980.50;10445811;28;20107;-94
2022/01/04 01:30:57;;;;;;;3.50;1.50;;;;;;;5.40;92.96;99982.22;10479452;28;20087;-95
2022/01/04 01:35:57;;;;;;;4.05;2.10;;;;;;;5.39;92.92;99974.31;10496873;28;20021;-94
2022/01/04 01:40:58;;;;;;;5.30;1.90;;;;;;;5.39;92.99;99967.44;10461116;28;20048;-94
2022/01/04 01:45:58;;;;;;;7.15;2.42;;;;;;;5.42;93.81;99959.84;10486371;28;20503;-94
2022/01/04 01:50:59;;;;;;;4.65;2.60;;;;;;;5.39;93.35;99967.44;10469054;28;20057;-93
2022/01/04 01:56:00;;;;;;;4.97;2.10;;;;;;;5.42;93.02;99949.44;10464360;28;20025;-94
2022/01/04 02:01:00;;;;;;;4.07;2.22;;;;;;;5.47;93.44;99939.31;10460671;28;20113;-93
2022/01/04 02:06:02;;;;;;;3.10;1.70;;;;;;;5.51;93.29;99942.97;10464583;28;20489;-92
2022/01/04 02:11:02;;;;;;;7.25;2.10;;;;;;;5.46;93.22;99928.84;10487012;28;20040;-92
2022/01/04 02:16:03;;;;;;;5.50;1.92;;;;;;;5.40;93.36;99926.81;10480137;28;20028;-92
2022/01/04 02:21:03;;;;;;;3.80;2.20;;;;;;;5.37;93.39;99914.56;10470498;28;20413;-93
2022/01/04 02:26:04;;;;;;;4.65;2.53;;;;;;;5.39;93.05;99909.44;10465419;28;20017;-92
2022/01/04 02:31:05;;;;;;;4.28;2.00;;;;;;;5.35;93.15;99895.44;10501093;28;20131;-94
2022/01/04 02:36:05;;;;;;;11.15;3.15;;;;;;;5.35;93.66;99892.84;10471558;28;20029;-94
2022/01/04 02:41:06;;;;;;;5.28;2.15;;;;;;;5.34;93.05;99897.94;10459360;28;20029;-94
2022/01/04 02:46:06;;;;;;;6.80;2.28;;;;;;;5.36;93.17;99889.44;10459008;28;20065;-94
2022/01/04 02:51:07;;;;;;;12.40;3.75;;;;;;;5.30;93.56;99886.53;10459375;28;20041;-93
2022/01/04 02:56:07;;;;;;;7.13;2.75;;;;;;;5.33;93.14;99873.72;10486335;28;20069;-93
2022/01/04 03:01:08;;;;;;;5.10;2.38;;;;;;;5.31;93.39;99869.22;10484046;28;20018;-94
2022/01/04 03:06:13;;;;;;;6.55;2.72;;;;;;;5.24;93.12;99863.72;10460109;28;20120;-94
2022/01/04 03:11:13;;;;;;;8.57;3.00;;;;;;;5.22;93.56;99846.31;10491587;28;20099;-94
2022/01/04 03:16:14;;;;;;;8.48;3.15;;;;;;;5.23;93.49;99836.00;10459419;28;20029;-95
2022/01/04 03:21:14;;;;;;;4.45;2.90;;;;;;;5.24;93.38;99827.41;10458182;28;20036;-94
2022/01/04 03:26:15;;;;;;;6.43;3.05;;;;;;;5.25;93.90;99813.63;10458068;28;20451;-95
2022/01/04 03:31:15;;;;;;;3.58;2.05;;;;;;;5.25;93.29;99808.44;10474312;28;20044;-95
2022/01/04 03:36:16;;;;;;;6.70;2.30;;;;;;;5.20;93.44;99799.50;10458920;28;20021;-95
2022/01/04 03:41:17;;;;;;;5.72;2.08;;;;;;;5.11;93.69;99786.06;10458975;28;20033;-94
2022/01/04 03:46:17;;;;;;;5.22;2.70;;;;;;;5.17;93.13;99780.31;10457953;28;20029;-94
2022/01/04 03:51:18;;;;;;;9.30;3.35;;;;;;;5.18;93.43;99770.00;10493079;28;20074;-94
2022/01/04 03:56:18;;;;;;;7.18;3.03;;;;;;;5.20;93.63;99757.13;10472101;28;20875;-94
2022/01/04 04:01:19;;;;;;;6.70;2.95;;;;;;;5.19;93.68;99739.78;10415694;28;20040;-95
2022/01/04 04:06:19;;;;;;;4.53;3.35;;;;;;;5.19;93.36;99729.41;10489916;28;20124;-94
2022/01/04 04:11:20;;;;;;;6.13;3.08;;;;;;;5.21;93.53;99720.00;10457341;28;20120;-94
2022/01/04 04:16:20;;;;;;;6.75;2.95;;;;;;;5.22;93.42;99709.69;10468912;28;20376;-95
2022/01/04 04:21:21;;;;;;;6.15;3.42;;;;;;;5.21;93.83;99696.66;10402767;28;20021;-95
2022/01/04 04:26:21;;;;;;;5.45;3.00;;;;;;;5.21;93.94;99692.34;10439606;28;20114;-95
2022/01/04 04:31:21;;;;;;;6.60;3.25;;;;;;;5.28;93.68;99678.00;10455522;28;20021;-94
2022/01/04 04:36:22;;;;;;;8.95;4.68;;;;;;;5.28;93.26;99678.00;10438989;28;20025;-95
2022/01/04 04:41:23;;;;;;;7.85;3.40;;;;;;;5.27;93.67;99671.03;10457366;28;20029;-95
2022/01/04 04:46:23;;;;;;;9.60;3.83;;;;;;;5.23;93.36;99667.38;10455714;28;20167;-94
2022/01/04 04:51:24;;;;;;;5.35;3.28;;;;;;;5.24;93.66;99668.28;10492445;28;20477;-96
2022/01/04 04:56:24;;;;;;;7.63;4.05;;;;;;;5.30;94.24;99663.38;10430891;28;20028;-94
2022/01/04 05:01:28;;;;;;;5.75;4.00;;;;;;;5.26;93.75;99685.69;10468965;28;20476;-96
2022/01/04 05:06:28;;;;;;;7.88;3.65;;;;;;;5.27;93.23;99677.09;10468839;28;20080;-95
2022/01/04 05:11:29;;;;;;;8.30;4.50;;;;;;;5.29;93.34;99680.66;10452361;28;20134;-95
2022/01/04 05:16:30;;;;;;;9.45;5.13;;;;;;;5.35;93.22;99671.38;10468634;28;20025;-95
2022/01/04 05:21:30;;;;;;;7.10;3.90;;;;;;;5.34;93.41;99662.72;10452269;28;20021;-95
2022/01/04 05:26:33;;;;;;;7.40;4.57;;;;;;;5.25;93.46;99657.94;10468826;28;20108;-96
2022/01/04 05:31:33;;;;;;;;;;;;;;;5.23;93.46;99657.00;10469179;28;20036;-95
2022/01/04 05:36:35;;;;;;;22.15;6.47;;;;;;;5.20;93.02;99646.47;10451596;28;20000;-96
2022/01/04 05:41:35;;;;;;;13.13;6.82;;;;;;;5.20;93.44;99649.06;10472842;28;20392;-95
2022/01/04 05:46:36;;;;;;;11.00;6.30;;;;;;;5.23;93.54;99636.22;10479603;28;20028;-93
2022/01/04 05:51:38;;;;;;;11.48;6.80;;;;;;;5.31;93.37;99609.78;10483342;28;20384;-96
2022/01/04 05:56:41;;;;;;;11.65;7.97;;;;;;;5.27;93.01;99601.84;10469227;28;20032;-95
2022/01/04 06:01:44;;;;;;;11.77;5.75;;;;;;;5.18;93.35;99597.94;10498000;28;20023;-94
2022/01/04 06:06:47;;;;;;;13.63;6.78;;;;;;;5.17;93.30;99606.53;10465376;28;20070;-96
2022/01/04 06:16:49;;;;;;;13.15;7.95;;;;;;;5.16;93.44;99597.84;10424768;28;20044;-96
2022/01/04 06:21:49;;;;;;;14.20;8.98;;;;;;;5.06;93.36;99593.91;10474634;28;20122;-95
2022/01/04 06:26:52;;;;;;;14.43;8.65;;;;;;;5.10;92.98;99588.06;10482416;28;20119;-96
2022/01/04 06:31:53;;;;;;;15.40;10.02;;;;;;;5.12;93.68;99581.25;10469319;28;20037;-95
2022/01/04 06:36:54;;;;;;;17.52;10.07;;;;;;;5.12;93.66;99576.06;10413433;28;20132;-96
2022/01/04 06:41:54;;;;;;;16.20;9.80;;;;;;;5.05;93.94;99570.50;10416146;28;20029;-95
2022/01/04 06:46:56;;;;;;;14.98;9.65;;;;;;;5.03;93.19;99574.72;10430127;28;20028;-95
2022/01/04 06:51:57;;;;;;;18.05;10.85;;;;;;;5.00;94.49;99578.06;10442246;28;20032;-94
2022/01/04 06:56:57;;;;;;;20.05;10.02;;;;;;;5.05;93.81;99573.09;10426387;28;20123;-95
2022/01/04 07:02:00;;;;;;;18.27;13.10;;;;;;;5.10;93.96;99562.13;10426544;28;20036;-94
2022/01/04 07:07:00;;;;;;;15.30;8.52;;;;;;;5.12;94.06;99546.63;10426534;28;20452;-95
2022/01/04 07:12:01;;;;;;;21.42;10.07;;;;;;;5.16;93.39;99545.09;10428795;28;20052;-96
2022/01/04 07:17:02;;;;;;;18.70;9.55;;;;;;;5.17;93.62;99545.16;10458566;28;20477;-95
2022/01/04 07:22:04;;;;;;;19.27;11.07;;;;;;;5.17;93.65;99539.09;10430810;28;20424;-96
2022/01/04 07:27:05;;;;;;;19.05;11.23;;;;;;;5.18;93.81;99540.88;10425985;28;20029;-93
2022/01/04 07:32:05;;;;;;;17.63;11.25;;;;;;;5.15;93.37;99544.19;10427486;28;20029;-94
2022/01/04 07:37:06;;;;;;;23.83;11.30;;;;;;;5.17;93.69;99545.16;10453302;28;20580;-96
2022/01/04 07:42:07;;;;;;;17.35;11.13;;;;;;;5.16;93.50;99539.91;10414121;28;20499;-96
2022/01/04 07:47:07;;;;;;;17.35;10.85;;;;;;;5.20;93.74;99527.13;10438228;28;20059;-95
2022/01/04 07:52:08;;;;;;;16.30;9.75;;;;;;;5.20;93.37;99528.84;10417792;28;20598;-91
2022/01/04 07:57:08;;;;;;;20.35;11.88;;;;;;;5.22;93.75;99525.50;10456817;28;20119;-95
2022/01/04 08:02:09;;;;;;;14.75;10.25;;;;;;;5.22;93.37;99533.28;10457441;28;20061;-95
2022/01/04 08:07:09;;;;;;;15.82;9.63;;;;;;;5.23;93.50;99519.50;10476783;28;20108;-96
2022/01/04 08:12:13;;;;;;;18.92;10.57;;;;;;;5.20;93.17;99519.34;10462068;28;20493;-95
2022/01/04 08:17:14;;;;;;;17.88;10.68;;;;;;;5.16;93.01;99522.63;10456790;28;20029;-95
2022/01/04 08:22:14;;;;;;;17.10;11.10;;;;;;;5.17;93.73;99514.03;10458525;28;20465;-95
2022/01/04 08:27:15;;;;;;;20.92;12.40;;;;;;;5.21;93.89;99515.06;10458031;28;20033;-95
2022/01/04 08:32:16;;;;;;;16.35;9.20;;;;;;;5.25;93.58;99510.09;10468832;28;20067;-95
2022/01/04 08:37:16;;;;;;;17.60;12.02;;;;;;;5.27;94.11;99494.59;10480022;28;20036;-95
2022/01/04 08:42:17;;;;;;;19.85;10.25;;;;;;;5.33;93.70;99513.06;10491377;28;20433;-94
2022/01/04 08:47:17;;;;;;;13.15;8.00;;;;;;;5.35;93.57;99514.00;10442225;28;20117;-96
2022/01/04 08:52:18;;;;;;;14.40;8.77;;;;;;;5.37;93.47;99524.44;10422337;28;20029;-93
2022/01/04 08:57:18;;;;;;;14.05;9.27;;;;;;;5.43;93.54;99524.72;10443618;28;20074;-96
2022/01/04 09:02:19;;;;;;;14.38;8.38;;;;;;;5.48;93.28;99528.44;10455710;28;20021;-95
2022/01/04 09:07:19;;;;;;;17.20;9.48;;;;;;;5.56;92.88;99528.81;10484843;28;20013;-95
2022/01/04 09:12:22;;;;;;;10.90;7.07;;;;;;;5.55;93.33;99529.63;10466597;28;20072;-95
2022/01/04 09:22:42;;;;;;;15.65;6.32;;;;;;;5.55;92.37;99545.19;10495685;28;20028;-96
2022/01/04 09:33:25;;;;;;;11.73;7.50;;;;;;;5.69;92.22;99564.91;10781834;23;20061;-84
2022/01/04 09:38:25;;;;;;;11.63;6.63;;;;;;;5.67;92.10;99547.47;10371971;28;20045;-78
2022/01/04 09:43:26;;;;;;;11.30;7.93;;;;;;;5.71;92.62;99567.53;10364741;28;20048;-77
2022/01/04 09:48:27;;;;;;;16.08;9.70;;;;;;;5.72;91.73;99551.16;10365372;28;20127;-77
2022/01/04 09:53:27;;;;;;;16.50;9.88;;;;;;;5.69;91.22;99548.41;10376708;28;20045;-77
2022/01/04 09:58:28;;;;;;;15.35;7.65;;;;;;;5.73;92.02;99550.34;10371534;28;20078;-78
2022/01/04 10:03:30;;;;;;;15.25;8.02;;;;;;;5.80;91.13;99551.53;10377638;28;20105;-76
2022/01/04 10:08:31;;;;;;;14.18;6.82;;;;;;;5.85;91.29;99563.88;10348110;28;20388;-76
2022/01/04 10:13:32;;;;;;;13.10;7.95;;;;;;;5.88;91.32;99560.53;10342328;28;20045;-78
2022/01/04 10:18:36;;;;;;;13.18;8.10;;;;;;;5.91;91.01;99549.41;10400628;28;20021;-76
2022/01/04 10:23:55;;;;;;;15.55;8.45;;;;;;;5.95;90.77;99553.91;10356558;28;20018;-77
2022/01/04 10:28:56;;;;;;;12.32;7.63;;;;;;;6.02;90.35;99535.22;10329414;28;20193;-77
2022/01/04 10:33:58;;;;;;;18.13;10.43;;;;;;;6.12;89.73;99526.13;10372481;28;20042;-78
2022/01/04 10:39:08;;;;;;;21.40;12.63;;;;;;;6.19;89.61;99527.28;10372408;28;20191;-77
2022/01/04 10:44:13;;;;;;;17.25;11.18;;;;;;;6.23;89.56;99498.91;10353735;28;20490;-77
2022/01/04 10:49:19;;;;;;;18.50;10.07;;;;;;;6.34;89.34;99507.16;10365861;28;20052;-77
2022/01/04 10:54:19;;;;;;;19.40;11.80;;;;;;;6.26;90.02;99500.75;10373131;28;20030;-79
2022/01/04 10:59:20;;;;;;;20.08;13.60;;;;;;;6.26;89.88;99500.75;10334936;28;20030;-76
2022/01/04 11:04:21;;;;;;;21.45;10.98;;;;;;;6.29;89.79;99514.78;10340075;28;20042;-76
2022/01/04 11:09:22;;;;;;;16.27;9.38;;;;;;;6.30;89.86;99531.22;10344378;28;20148;-75
2022/01/04 11:14:24;;;;;;;19.90;11.47;;;;;;;6.33;89.19;99528.75;10358770;28;20074;-74
2022/01/04 11:19:31;;;;;;;19.70;11.60;;;;;;;6.38;89.03;99518.59;10341910;28;20038;-75
2022/01/04 11:24:31;;;;;;;24.52;11.70;;;;;;;6.39;88.56;99518.63;10364594;28;20021;-76
2022/01/04 11:29:32;;;;;;;21.55;14.20;;;;;;;6.43;89.31;99515.34;10330997;28;20061;-75
2022/01/04 11:34:36;;;;;;;19.25;12.52;;;;;;;6.44;89.02;99522.31;10362994;28;20065;-77
2022/01/04 11:39:39;;;;;;;25.35;15.18;;;;;;;6.49;89.11;99517.34;10370518;28;20037;-77
2022/01/04 11:44:46;;;;;;;21.98;13.98;;;;;;;6.46;88.88;99520.66;10365136;28;20030;-77
2022/01/04 11:50:05;;;;;;;29.02;16.95;;;;;;;6.42;89.38;99526.56;10383627;28;20506;-77
2022/01/04 11:55:22;;;;;;;24.75;14.38;;;;;;;6.41;89.08;99518.72;10370577;28;20042;-77
2022/01/04 12:00:31;;;;;;;26.42;14.57;;;;;;;6.37;89.50;99516.81;10362232;28;20030;-77
2022/01/04 12:05:31;;;;;;;25.52;16.15;;;;;;;6.36;89.43;99528.03;10366986;28;20034;-77
2022/01/04 12:10:33;;;;;;;32.38;16.45;;;;;;;6.45;89.50;99513.69;10351203;28;20033;-77
2022/01/04 12:15:33;;;;;;;25.63;16.03;;;;;;;6.47;89.20;99513.78;10355669;28;20033;-77
2022/01/04 12:20:43;;;;;;;27.55;15.60;;;;;;;6.49;88.41;99511.22;10384877;28;20026;-76
2022/01/04 12:26:10;;;;;;;30.17;16.38;;;;;;;6.51;88.89;99506.97;10355530;28;20119;-76
2022/01/04 12:31:17;;;;;;;28.17;15.52;;;;;;;6.53;88.52;99500.13;10366530;28;20089;-76
2022/01/04 12:36:28;;;;;;;35.33;17.13;;;;;;;6.56;88.63;99505.47;10371371;28;20096;-77
2022/01/04 12:41:30;;;;;;;27.65;16.27;;;;;;;6.56;88.41;99502.88;10352357;28;20069;-77
2022/01/04 12:46:30;;;;;;;;;;;;;;;6.59;88.44;99487.41;10360073;28;20040;-77
2022/01/04 12:51:37;;;;;;;28.42;15.10;;;;;;;6.59;88.42;99490.00;10368155;28;19917;-77
2022/01/04 12:56:41;;;;;;;28.73;14.48;;;;;;;6.67;89.17;99483.41;10368628;28;20037;-77
2022/01/04 13:01:42;;;;;;;30.30;15.98;;;;;;;6.74;88.24;99459.41;10363722;28;20026;-78
2022/01/04 13:06:42;;;;;;;21.17;13.43;;;;;;;6.80;87.85;99468.28;10351584;28;20432;-76
2022/01/04 13:11:52;;;;;;;27.27;14.18;;;;;;;6.78;88.59;99472.53;10365779;28;20088;-77
2022/01/04 13:17:07;;;;;;;25.40;13.15;;;;;;;6.73;87.93;99470.66;10369894;28;20549;-75
2022/01/04 13:22:13;;;;;;;28.92;15.23;;;;;;;6.56;88.87;99472.56;10369202;28;20041;-77
2022/01/04 13:27:28;;;;;;;22.30;14.90;;;;;;;6.25;89.62;99488.56;10358994;28;20088;-77
2022/01/04 13:32:30;;;;;;;28.55;15.10;;;;;;;6.13;91.10;99495.00;10374564;28;20396;-76
2022/01/04 13:37:31;;;;;;;37.90;17.85;;;;;;;6.14;91.64;99489.00;10361063;28;20030;-76
2022/01/04 13:42:38;;;;;;;27.90;16.27;;;;;;;6.11;91.93;99499.25;10374845;28;20124;-76
2022/01/04 13:47:40;;;;;;;11.10;6.72;;;;;;;5.73;89.75;99485.44;10364307;28;20022;-74
2022/01/04 13:52:41;;;;;;;6.05;3.75;;;;;;;5.49;89.79;99495.59;10368058;28;20176;-76
2022/01/04 13:57:42;;;;;;;14.95;3.95;;;;;;;5.27;90.47;99526.59;10344479;28;20476;-76
2022/01/04 14:02:42;;;;;;;4.15;1.70;;;;;;;5.13;90.65;99523.38;10365751;28;20034;-77
2022/01/04 14:07:53;;;;;;;8.07;1.73;;;;;;;4.99;90.66;99514.03;10363357;28;20049;-76
2022/01/04 14:12:54;;;;;;;6.10;2.30;;;;;;;4.96;91.15;99521.69;10369290;28;20042;-77
2022/01/04 14:18:08;;;;;;;5.53;1.92;;;;;;;4.91;91.00;99511.06;10345207;28;20058;-77
2022/01/04 14:23:09;;;;;;;5.38;1.98;;;;;;;4.86;90.52;99499.59;10387274;28;20029;-75
2022/01/04 14:28:09;;;;;;;2.95;1.30;;;;;;;4.79;90.52;99511.38;10372985;28;20449;-75
2022/01/04 14:33:12;;;;;;;2.38;1.52;;;;;;;4.77;91.26;99500.03;10367601;28;20080;-76
2022/01/04 14:38:13;;;;;;;3.13;1.58;;;;;;;4.78;91.72;99521.66;10370274;28;20053;-78
2022/01/04 14:43:13;;;;;;;2.50;1.73;;;;;;;4.73;90.83;99534.41;10373090;28;20033;-77
2022/01/04 14:48:17;;;;;;;4.70;1.38;;;;;;;4.72;92.06;99539.50;10365353;28;20482;-75
2022/01/04 14:53:18;;;;;;;3.30;2.30;;;;;;;4.68;91.32;99535.88;10351982;28;20109;-76
2022/01/04 14:58:25;;;;;;;8.15;2.40;;;;;;;4.63;92.32;99545.13;10368995;28;20452;-77
2022/01/04 15:03:25;;;;;;;5.50;2.13;;;;;;;4.63;91.77;99540.81;10368594;28;20026;-76
2022/01/04 15:08:26;;;;;;;3.13;1.90;;;;;;;4.65;91.64;99553.88;10364267;28;20484;-80
2022/01/04 15:13:27;;;;;;;5.32;2.20;;;;;;;4.60;92.40;99560.50;10346788;28;20116;-81
2022/01/04 15:18:27;;;;;;;5.03;2.40;;;;;;;4.54;92.48;99561.06;10373554;28;20034;-80
2022/01/04 15:23:28;;;;;;;5.18;2.22;;;;;;;4.52;92.56;99562.69;10371129;28;20061;-81
2022/01/04 15:28:28;;;;;;;16.20;3.60;;;;;;;4.52;93.31;99563.59;10384048;28;20026;-80
2022/01/04 15:33:29;;;;;;;6.95;3.35;;;;;;;4.48;93.10;99572.03;10371069;28;20548;-78
2022/01/04 15:38:31;;;;;;;6.90;3.45;;;;;;;4.47;93.21;99579.72;10368626;28;20033;-78
2022/01/04 15:43:31;;;;;;;7.50;4.05;;;;;;;4.45;93.38;99579.66;10319715;28;20501;-76
2022/01/04 15:48:32;;;;;;;6.35;3.90;;;;;;;4.46;93.18;99601.25;10351415;28;20034;-77
2022/01/04 15:53:32;;;;;;;9.85;3.70;;;;;;;4.47;93.73;99605.63;10383882;28;20041;-78
2022/01/04 15:58:33;;;;;;;7.13;4.07;;;;;;;4.49;93.89;99625.63;10349893;28;20381;-78
2022/01/04 16:03:33;;;;;;;8.57;4.95;;;;;;;4.56;93.26;99637.19;10345808;28;20030;-77
2022/01/04 16:08:34;;;;;;;6.80;4.00;;;;;;;4.48;93.38;99635.91;10360793;28;20107;-76
2022/01/04 16:13:34;;;;;;;5.78;3.83;;;;;;;4.43;93.55;99637.38;10365793;28;20030;-75
2022/01/04 16:21:33;;;;;;;6.50;3.95;;;;;;;4.42;93.43;99628.72;10359710;28;20137;-76
2022/01/04 16:23:58;;;;;;;8.93;5.15;;;;;;;4.39;93.08;99641.50;10369985;28;20033;-75
2022/01/04 16:29:01;;;;;;;9.30;4.68;;;;;;;4.38;93.14;99632.84;10371408;28;20084;-75
2022/01/04 16:34:02;;;;;;;9.85;5.53;;;;;;;4.32;94.04;99631.63;10370661;28;20026;-74
2022/01/04 16:39:04;;;;;;;11.73;6.63;;;;;;;4.29;93.71;99632.34;10351539;28;20042;-75
2022/01/04 16:44:05;;;;;;;9.23;5.20;;;;;;;4.26;93.64;99629.59;10370083;28;20404;-74
2022/01/04 16:49:06;;;;;;;7.95;5.35;;;;;;;4.30;94.12;99634.13;10347286;28;20040;-74
2022/01/04 16:54:07;;;;;;;8.75;5.47;;;;;;;4.24;93.76;99633.81;10370803;28;20045;-75
2022/01/04 16:59:07;;;;;;;7.93;4.90;;;;;;;4.25;93.84;99633.91;10368172;28;20477;-74
2022/01/04 17:04:08;;;;;;;11.10;6.65;;;;;;;4.23;93.59;99635.53;10366243;28;20103;-74
2022/01/04 17:09:12;;;;;;;8.63;5.63;;;;;;;4.22;94.14;99638.00;10359535;28;20077;-74
2022/01/04 17:19:33;;;;;;;23.08;6.90;;;;;;;4.29;94.00;99640.13;10347008;28;20384;-75
2022/01/04 17:24:34;;;;;;;11.05;6.65;;;;;;;4.31;93.85;99629.84;10364716;28;20038;-74
2022/01/04 17:29:34;;;;;;;11.60;7.60;;;;;;;4.35;93.63;99626.63;10332855;28;20089;-74
2022/01/04 17:34:36;;;;;;;12.77;7.35;;;;;;;4.29;93.74;99621.97;10340537;28;20487;-75
2022/01/04 17:39:36;;;;;;;13.13;8.13;;;;;;;4.20;93.69;99622.41;10353340;28;20042;-74
2022/01/04 17:44:37;;;;;;;22.85;11.98;;;;;;;4.18;93.63;99636.97;10353446;28;20038;-74
2022/01/04 17:49:37;;;;;;;20.83;12.82;;;;;;;4.19;94.25;99632.66;10367587;28;20026;-75
2022/01/04 17:54:38;;;;;;;23.38;16.33;;;;;;;4.34;94.17;99638.66;10367604;28;20091;-74
2022/01/04 17:59:41;;;;;;;25.35;15.23;;;;;;;4.51;93.94;99643.84;10370318;28;20119;-75
2022/01/04 18:04:42;;;;;;;16.40;10.32;;;;;;;4.54;92.51;99651.78;10361900;28;20034;-77
2022/01/04 18:09:42;;;;;;;13.90;6.55;;;;;;;4.46;89.82;99648.78;10322575;28;20500;-76
2022/01/04 18:14:43;;;;;;;10.70;4.57;;;;;;;4.34;88.03;99650.75;10366882;28;20489;-76
2022/01/04 18:19:47;;;;;;;15.27;7.07;;;;;;;4.13;89.10;99660.81;10364999;28;20040;-76
2022/01/04 18:24:56;;;;;;;9.57;6.25;;;;;;;4.11;89.09;99671.13;10381425;28;20042;-76
2022/01/04 18:29:57;;;;;;;9.68;4.18;;;;;;;4.14;88.62;99666.09;10393227;28;20061;-75
2022/01/04 18:34:58;;;;;;;8.15;4.45;;;;;;;4.05;86.30;99657.84;10377734;28;20041;-75
2022/01/04 18:39:58;;;;;;;14.18;3.15;;;;;;;3.92;87.67;99661.44;10359663;28;20061;-76
2022/01/04 18:45:05;;;;;;;8.27;4.03;;;;;;;3.88;87.97;99660.41;10374606;28;20436;-75
2022/01/04 18:50:06;;;;;;;11.95;4.45;;;;;;;3.80;88.58;99667.72;10384534;28;20067;-76
2022/01/04 18:55:08;;;;;;;7.57;4.15;;;;;;;3.80;88.74;99675.47;10375460;28;20034;-74
2022/01/04 19:00:09;;;;;;;8.60;3.20;;;;;;;3.75;88.17;99689.00;10376056;28;20041;-75
2022/01/04 19:05:12;;;;;;;11.40;3.85;;;;;;;3.69;88.14;99694.69;10371990;28;20285;-74
2022/01/04 19:10:13;;;;;;;;;;;;;;;3.60;88.90;99692.50;10376186;28;20033;-75
2022/01/04 19:15:16;;;;;;;18.15;4.03;;;;;;;3.61;89.08;99707.22;10366235;28;19913;-74
2022/01/04 19:20:19;;;;;;;6.03;3.28;;;;;;;3.55;88.87;99696.53;10371305;28;20034;-74
2022/01/04 19:25:20;;;;;;;10.55;2.67;;;;;;;3.47;89.00;99700.38;10355497;28;20052;-75
2022/01/04 19:30:22;;;;;;;9.23;5.38;;;;;;;3.42;89.12;99705.25;10372927;28;20080;-76
2022/01/04 19:40:43;;;;;;;15.77;11.25;;;;;;;3.12;89.51;99722.47;10341364;28;20030;-74
2022/01/04 19:45:48;;;;;;;8.52;4.90;;;;;;;3.02;90.22;99719.34;10369488;28;20061;-75
2022/01/04 19:50:48;;;;;;;7.60;3.72;;;;;;;2.97;90.56;99725.03;10353747;28;20052;-75
2022/01/04 19:55:49;;;;;;;11.73;4.95;;;;;;;2.90;91.09;99728.97;10369299;28;20528;-75
2022/01/04 20:00:50;;;;;;;9.95;5.60;;;;;;;2.86;90.94;99738.19;10352124;28;20046;-75
2022/01/04 20:05:51;;;;;;;10.20;5.32;;;;;;;2.90;91.45;99727.25;10367125;28;20048;-76
2022/01/04 20:10:51;;;;;;;9.63;5.18;;;;;;;3.07;91.21;99715.34;10370677;28;20038;-75
2022/01/04 20:15:52;;;;;;;16.15;4.05;;;;;;;3.03;91.04;99720.22;10365771;28;20053;-75
2022/01/04 20:20:52;;;;;;;12.75;4.50;;;;;;;2.91;91.16;99725.56;10369905;28;20033;-76
2022/01/04 20:25:53;;;;;;;10.85;5.38;;;;;;;2.92;91.75;99743.75;10367249;28;20065;-75
2022/01/04 20:30:57;;;;;;;12.45;6.63;;;;;;;2.87;91.91;99759.78;10383268;28;20128;-76
2022/01/04 20:35:58;;;;;;;8.30;5.28;;;;;;;2.84;91.96;99768.22;10352752;28;20045;-75
2022/01/04 20:40:58;;;;;;;21.23;11.60;;;;;;;2.86;92.19;99758.00;10369957;28;20465;-74
2022/01/04 20:46:00;;;;;;;22.33;8.95;;;;;;;2.86;92.48;99760.59;10339644;28;20036;-75
2022/01/04 20:51:01;;;;;;;9.98;6.45;;;;;;;2.86;92.31;99755.41;10362957;28;20050;-75
2022/01/04 20:56:04;;;;;;;19.30;9.82;;;;;;;2.93;92.99;99747.25;10369131;28;20196;-75
2022/01/04 21:01:07;;;;;;;13.80;7.05;;;;;;;2.89;92.49;99746.13;10366487;28;20088;-74
2022/01/04 21:06:09;;;;;;;16.35;8.63;;;;;;;2.91;92.46;99741.97;10358937;28;20073;-74
2022/01/04 21:11:09;;;;;;;15.70;8.48;;;;;;;2.89;92.02;99734.94;10354500;28;20116;-74
2022/01/04 21:16:10;;;;;;;15.20;9.32;;;;;;;2.78;92.16;99752.34;10380099;28;20025;-75
2022/01/04 21:21:10;;;;;;;16.42;9.48;;;;;;;2.76;92.38;99770.38;10380723;28;20034;-74
2022/01/04 21:26:11;;;;;;;14.13;6.38;;;;;;;2.86;92.10;99784.72;10367122;28;20037;-74
2022/01/04 21:31:12;;;;;;;14.77;4.90;;;;;;;2.83;90.90;99794.88;10366662;28;20124;-74
2022/01/04 21:36:12;;;;;;;16.58;4.60;;;;;;;2.69;88.81;99806.06;10383899;28;20046;-75
2022/01/04 21:41:13;;;;;;;15.73;5.25;;;;;;;2.67;87.10;99810.22;10358627;28;20088;-74
2022/01/04 21:46:13;;;;;;;18.08;6.10;;;;;;;2.56;87.00;99815.63;10375904;28;20022;-74
2022/01/04 21:51:14;;;;;;;16.00;4.53;;;;;;;2.52;86.64;99836.00;10374147;28;20443;-74
2022/01/04 21:56:14;;;;;;;6.18;3.15;;;;;;;2.42;86.14;99853.50;10373497;28;20030;-75
2022/01/04 22:01:15;;;;;;;12.43;3.38;;;;;;;2.24;87.09;99870.41;10356452;28;20026;-74
2022/01/04 22:06:15;;;;;;;5.35;1.92;;;;;;;1.86;87.01;99877.41;10373499;28;20034;-74
2022/01/04 22:11:16;;;;;;;11.32;3.63;;;;;;;1.56;87.97;99890.03;10356018;28;20037;-76
2022/01/04 22:16:17;;;;;;;5.35;2.47;;;;;;;1.45;89.19;99891.88;10371311;28;20107;-74
2022/01/04 22:21:17;;;;;;;9.20;2.13;;;;;;;1.30;90.31;99887.47;10373338;28;20050;-75
2022/01/04 22:26:18;;;;;;;26.75;4.00;;;;;;;1.22;90.37;99898.03;10373558;28;20030;-75
2022/01/04 22:31:18;;;;;;;17.10;6.72;;;;;;;1.11;90.77;99903.31;10358092;28;20033;-76
2022/01/04 22:36:19;;;;;;;21.88;5.60;;;;;;;1.11;91.66;99910.19;10373723;28;20046;-74
2022/01/04 22:41:19;;;;;;;42.72;18.92;;;;;;;1.09;91.74;99915.22;10375833;28;20034;-75
2022/01/04 22:46:20;;;;;;;14.05;2.50;;;;;;;1.06;91.61;99917.56;10373603;28;20380;-74
2022/01/04 22:51:20;;;;;;;13.13;6.55;;;;;;;1.12;91.42;99920.56;10373366;28;20065;-74
2022/01/04 22:56:21;;;;;;;10.68;3.78;;;;;;;1.13;92.07;99930.09;10374557;28;20053;-75
2022/01/04 23:01:21;;;;;;;13.18;3.92;;;;;;;1.18;92.17;99925.28;10372450;28;20046;-74
2022/01/04 23:06:22;;;;;;;10.68;4.15;;;;;;;1.19;92.60;99939.06;10356569;28;20033;-74
2022/01/04 23:11:23;;;;;;;8.68;3.97;;;;;;;1.23;92.41;99941.97;10373402;28;20615;-74
2022/01/04 23:16:24;;;;;;;8.87;4.13;;;;;;;1.22;92.54;99942.75;10348283;28;20033;-74
2022/01/04 23:21:24;;;;;;;15.10;3.80;;;;;;;1.23;92.62;99935.91;10358241;28;20072;-74
2022/01/04 23:26:25;;;;;;;11.43;4.53;;;;;;;1.26;92.92;99939.59;10372137;28;20527;-74
2022/01/04 23:31:25;;;;;;;12.57;5.57;;;;;;;1.31;93.37;99934.75;10364244;28;20045;-74
2022/01/04 23:36:26;;;;;;;23.48;7.40;;;;;;;1.34;93.18;99939.25;10348181;28;20302;-74
2022/01/04 23:41:26;;;;;;;11.82;3.80;;;;;;;1.38;92.90;99941.25;10350598;28;20505;-75
2022/01/04 23:46:27;;;;;;;11.07;4.22;;;;;;;1.36;93.31;99947.97;10367359;28;20446;-76
2022/01/04 23:51:27;;;;;;;13.65;6.70;;;;;;;1.28;92.79;99942.28;10353418;28;20057;-74